createdAt,value
2018-12-07T00:01:13.939Z,-2.10
2018-12-07T00:03:43.813Z,-2.13
2018-12-07T00:06:13.452Z,-2.24
2018-12-07T00:08:43.114Z,-2.24
2018-12-07T00:11:12.952Z,-2.39
2018-12-07T00:13:42.611Z,-2.41
2018-12-07T00:16:12.435Z,-2.42
2018-12-07T00:18:41.920Z,-2.39
2018-12-07T00:21:11.540Z,-2.47
2018-12-07T00:23:41.721Z,-2.83
2018-12-07T00:26:11.403Z,-2.52
2018-12-07T00:28:40.996Z,-2.44
2018-12-07T00:31:10.619Z,-2.39
2018-12-07T00:33:40.459Z,-2.56
2018-12-07T00:36:10.534Z,-2.59
2018-12-07T00:38:40.077Z,-2.64
2018-12-07T00:41:09.928Z,-2.69
2018-12-07T00:43:39.622Z,-2.74
2018-12-07T00:46:09.294Z,-2.69
2018-12-07T00:48:38.864Z,-2.63
2018-12-07T00:51:08.414Z,-2.61
2018-12-07T00:53:37.968Z,-2.47
2018-12-07T00:56:07.688Z,-2.58
2018-12-07T00:58:37.733Z,-2.68
2018-12-07T01:01:07.509Z,-2.64
2018-12-07T01:03:37.144Z,-2.65
2018-12-07T01:06:06.908Z,-2.84
2018-12-07T01:08:36.786Z,-2.81
2018-12-07T01:11:06.341Z,-2.72
2018-12-07T01:13:36.301Z,-2.74
2018-12-07T01:16:06.079Z,-2.93
2018-12-07T01:18:35.803Z,-2.73
2018-12-07T01:21:05.506Z,-2.75
2018-12-07T01:23:35.638Z,-2.77
2018-12-07T01:26:05.309Z,-2.59
2018-12-07T01:28:34.863Z,-2.69
2018-12-07T01:31:04.467Z,-2.43
2018-12-07T01:33:34.039Z,-2.40
2018-12-07T01:36:04.014Z,-2.52
2018-12-07T01:38:33.584Z,-2.62
2018-12-07T01:41:03.485Z,-2.90
2018-12-07T01:43:33.402Z,-2.86
2018-12-07T01:46:03.067Z,-2.91
2018-12-07T01:48:32.951Z,-2.94
2018-12-07T01:51:02.748Z,-3.15
2018-12-07T01:53:32.412Z,-3.13
2018-12-07T01:56:02.162Z,-3.18
2018-12-07T01:58:32.037Z,-3.34
2018-12-07T02:01:01.727Z,-3.42
2018-12-07T02:03:31.490Z,-3.30
2018-12-07T02:06:01.065Z,-3.28
2018-12-07T02:08:30.972Z,-3.35
2018-12-07T02:11:00.689Z,-5.31
2018-12-07T02:13:30.313Z,-3.42
2018-12-07T02:16:00.040Z,-3.48
2018-12-07T02:18:29.688Z,-3.51
2018-12-07T02:20:59.973Z,-3.46
2018-12-07T02:23:29.840Z,-3.48
2018-12-07T02:26:01.594Z,-3.55
2018-12-07T02:28:31.244Z,-3.59
2018-12-07T02:31:01.383Z,-3.69
2018-12-07T02:33:31.088Z,-3.86
2018-12-07T02:36:00.834Z,-3.84
2018-12-07T02:38:30.619Z,-5.06
2018-12-07T02:41:00.353Z,-3.81
2018-12-07T02:43:30.162Z,-3.81
2018-12-07T02:46:00.561Z,-3.99
2018-12-07T02:48:30.361Z,-3.90
2018-12-07T02:51:00.025Z,-3.95
2018-12-07T02:53:30.074Z,-4.14
2018-12-07T02:55:59.800Z,-4.04
2018-12-07T02:58:29.798Z,-4.12
2018-12-07T03:00:59.593Z,-4.02
2018-12-07T03:03:29.286Z,-4.21
2018-12-07T03:05:59.155Z,-4.23
2018-12-07T03:08:28.987Z,-4.25
2018-12-07T03:10:59.026Z,-4.14
2018-12-07T03:13:28.772Z,-4.22
2018-12-07T03:15:58.298Z,-4.14
2018-12-07T03:18:33.427Z,-4.14
2018-12-07T03:21:03.361Z,-4.13
2018-12-07T03:23:32.911Z,-4.05
2018-12-07T03:26:03.421Z,-3.98
2018-12-07T03:28:33.891Z,-3.99
2018-12-07T03:31:03.581Z,-3.95
2018-12-07T03:33:33.579Z,-4.01
2018-12-07T03:36:03.528Z,-4.12
2018-12-07T03:38:33.197Z,-4.20
2018-12-07T03:41:02.945Z,-4.32
2018-12-07T03:43:32.500Z,-4.26
2018-12-07T03:46:02.176Z,-4.26
2018-12-07T03:48:31.754Z,-4.17
2018-12-07T03:51:01.441Z,-4.26
2018-12-07T03:53:31.705Z,-4.37
2018-12-07T03:56:01.365Z,-4.37
2018-12-07T03:58:30.856Z,-4.39
2018-12-07T04:01:00.525Z,-4.28
2018-12-07T04:03:30.034Z,-4.33
2018-12-07T04:05:59.822Z,-4.34
2018-12-07T04:08:29.639Z,-4.27
2018-12-07T04:10:59.375Z,-4.28
2018-12-07T04:13:29.179Z,-4.09
2018-12-07T04:15:59.877Z,-4.10
2018-12-07T04:18:29.801Z,-4.04
2018-12-07T04:20:59.350Z,-4.06
2018-12-07T04:23:28.931Z,-4.11
2018-12-07T04:25:58.699Z,-4.10
2018-12-07T04:28:28.531Z,-4.09
2018-12-07T04:30:58.110Z,-4.06
2018-12-07T04:33:27.932Z,-3.94
2018-12-07T04:35:57.522Z,-3.93
2018-12-07T04:38:27.712Z,-3.97
2018-12-07T04:40:57.416Z,-3.89
2018-12-07T04:43:27.528Z,-4.09
2018-12-07T04:45:57.136Z,-4.19
2018-12-07T04:48:26.764Z,-4.07
2018-12-07T04:50:56.361Z,-4.10
2018-12-07T04:53:26.330Z,-4.12
2018-12-07T04:55:56.051Z,-4.06
2018-12-07T04:58:25.931Z,-4.09
2018-12-07T05:00:55.861Z,-4.20
2018-12-07T05:03:25.442Z,-4.27
2018-12-07T05:05:55.613Z,-4.22
2018-12-07T05:08:25.441Z,-4.21
2018-12-07T05:10:55.233Z,-4.25
2018-12-07T05:13:25.332Z,-4.17
2018-12-07T05:15:55.058Z,-4.13
2018-12-07T05:18:24.860Z,-4.38
2018-12-07T05:20:54.609Z,-4.57
2018-12-07T05:23:24.148Z,-4.36
2018-12-07T05:25:53.743Z,-4.49
2018-12-07T05:28:23.511Z,-4.41
2018-12-07T05:30:53.277Z,-4.48
2018-12-07T05:33:23.036Z,-4.42
2018-12-07T05:35:52.715Z,-4.33
2018-12-07T05:38:22.369Z,-4.45
2018-12-07T05:40:51.905Z,-4.39
2018-12-07T05:43:21.759Z,-4.58
2018-12-07T05:45:51.434Z,-4.57
2018-12-07T05:48:23.797Z,-4.54
2018-12-07T05:50:52.878Z,-4.41
2018-12-07T05:53:22.500Z,-4.27
2018-12-07T05:55:52.663Z,-4.33
2018-12-07T05:58:22.151Z,-4.24
2018-12-07T06:00:51.738Z,-4.15
2018-12-07T06:03:21.282Z,-4.21
2018-12-07T06:05:51.024Z,-4.03
2018-12-07T06:08:21.093Z,-3.94
2018-12-07T06:10:50.759Z,-3.80
2018-12-07T06:13:20.528Z,-3.40
2018-12-07T06:15:50.432Z,-2.71
2018-12-07T06:18:20.032Z,-1.86
2018-12-07T06:20:49.639Z,-1.28
2018-12-07T06:23:19.565Z,-0.48
2018-12-07T06:25:49.233Z,0.12
2018-12-07T06:28:18.981Z,0.75
2018-12-07T06:30:48.683Z,1.49
2018-12-07T06:33:18.425Z,1.84
2018-12-07T06:35:48.271Z,2.48
2018-12-07T06:38:17.899Z,1.98
2018-12-07T06:40:47.749Z,2.44
2018-12-07T06:43:17.730Z,2.83
2018-12-07T06:45:47.211Z,3.03
2018-12-07T06:48:17.104Z,2.70
2018-12-07T06:50:47.132Z,3.09
2018-12-07T06:53:16.850Z,3.58
2018-12-07T06:55:46.422Z,4.03
2018-12-07T06:58:16.438Z,4.18
2018-12-07T07:00:46.005Z,4.24
2018-12-07T07:03:15.732Z,5.07
2018-12-07T07:05:45.725Z,5.08
2018-12-07T07:08:15.650Z,5.52
2018-12-07T07:10:45.244Z,6.44
2018-12-07T07:13:14.871Z,5.96
2018-12-07T07:15:44.432Z,6.15
2018-12-07T07:18:14.188Z,6.54
2018-12-07T07:20:44.102Z,7.95
2018-12-07T07:23:13.685Z,8.10
2018-12-07T07:25:43.247Z,8.46
2018-12-07T07:28:13.031Z,7.91
2018-12-07T07:30:42.739Z,6.82
2018-12-07T07:33:12.616Z,6.03
2018-12-07T07:35:42.620Z,5.47
2018-12-07T07:38:12.402Z,5.71
2018-12-07T07:40:42.026Z,6.22
2018-12-07T07:43:11.666Z,6.79
2018-12-07T07:45:41.366Z,6.79
2018-12-07T07:48:11.229Z,6.21
2018-12-07T07:50:40.694Z,6.43
2018-12-07T07:53:10.423Z,7.25
2018-12-07T07:55:39.963Z,6.66
2018-12-07T07:58:09.536Z,6.81
2018-12-07T08:00:39.351Z,6.48
2018-12-07T08:03:09.359Z,6.42
2018-12-07T08:05:39.867Z,6.75
2018-12-07T08:08:09.500Z,8.21
2018-12-07T08:10:39.247Z,7.69
2018-12-07T08:13:09.300Z,8.34
2018-12-07T08:15:38.903Z,8.00
2018-12-07T08:18:08.440Z,9.12
2018-12-07T08:20:38.127Z,10.56
2018-12-07T08:23:14.518Z,9.44
2018-12-07T08:25:39.821Z,9.68
2018-12-07T08:28:09.828Z,9.78
2018-12-07T08:30:39.658Z,9.79
2018-12-07T08:33:09.327Z,9.73
2018-12-07T08:35:39.170Z,9.50
2018-12-07T08:38:09.178Z,9.06
2018-12-07T08:40:39.301Z,9.01
2018-12-07T08:43:09.094Z,10.01
2018-12-07T08:45:38.620Z,9.10
2018-12-07T08:48:08.494Z,9.71
2018-12-07T08:50:38.667Z,9.99
2018-12-07T08:53:08.322Z,10.61
2018-12-07T08:55:38.488Z,10.33
2018-12-07T08:58:08.193Z,9.88
2018-12-07T09:00:37.848Z,10.03
2018-12-07T09:03:08.005Z,9.81
2018-12-07T09:05:37.752Z,9.88
2018-12-07T09:08:14.929Z,10.18
2018-12-07T09:10:39.531Z,10.71
2018-12-07T09:13:09.719Z,10.71
2018-12-07T09:15:39.581Z,11.11
2018-12-07T09:18:09.622Z,10.99
2018-12-07T09:20:39.468Z,10.62
2018-12-07T09:23:09.525Z,11.37
2018-12-07T09:25:39.423Z,11.18
2018-12-07T09:28:09.125Z,11.52
2018-12-07T09:30:38.938Z,11.41
2018-12-07T09:33:08.720Z,11.31
2018-12-07T09:35:38.323Z,10.43
2018-12-07T09:38:13.124Z,10.55
2018-12-07T09:40:40.246Z,10.04
2018-12-07T09:43:09.944Z,10.37
2018-12-07T09:45:39.699Z,11.11
2018-12-07T09:48:10.802Z,9.97
2018-12-07T09:50:40.462Z,10.94
2018-12-07T09:53:10.059Z,13.25
2018-12-07T09:55:39.783Z,11.86
2018-12-07T09:58:10.019Z,11.59
2018-12-07T10:00:39.824Z,12.01
2018-12-07T10:03:09.498Z,12.23
2018-12-07T10:05:39.313Z,12.40
2018-12-07T10:08:09.336Z,10.89
2018-12-07T10:10:38.963Z,11.18
2018-12-07T10:13:08.567Z,11.05
2018-12-07T10:15:38.263Z,10.68
2018-12-07T10:18:08.253Z,10.01
2018-12-07T10:20:38.308Z,10.88
2018-12-07T10:23:07.905Z,10.86
2018-12-07T10:25:58.531Z,10.74
2018-12-07T10:28:28.383Z,10.99
2018-12-07T10:30:58.710Z,11.00
2018-12-07T10:33:29.089Z,10.99
2018-12-07T10:36:04.277Z,10.32
2018-12-07T10:38:34.080Z,11.96
2018-12-07T10:41:05.061Z,12.48
2018-12-07T10:43:34.790Z,12.73
2018-12-07T10:46:04.484Z,12.85
2018-12-07T10:48:34.293Z,12.74
2018-12-07T10:51:07.865Z,12.64
2018-12-07T10:53:36.218Z,12.18
2018-12-07T10:56:06.220Z,11.09
2018-12-07T10:58:36.446Z,11.35
2018-12-07T11:01:11.439Z,10.99
2018-12-07T11:03:46.067Z,10.92
2018-12-07T11:06:20.798Z,11.00
2018-12-07T11:08:55.618Z,10.88
2018-12-07T11:17:57.372Z,11.46
2018-12-07T11:20:32.231Z,10.67
2018-12-07T11:23:06.732Z,10.38
2018-12-07T11:25:41.469Z,10.41
2018-12-07T11:28:16.341Z,9.44
2018-12-07T11:30:51.222Z,10.71
2018-12-07T11:33:28.514Z,10.42
2018-12-07T11:35:58.497Z,10.76
2018-12-07T11:38:29.319Z,10.99
2018-12-07T11:40:59.491Z,10.68
2018-12-07T11:43:29.466Z,10.78
2018-12-07T11:46:00.279Z,10.85
2018-12-07T11:48:30.140Z,11.18
2018-12-07T11:51:00.075Z,10.71
2018-12-07T11:53:29.645Z,10.10
2018-12-07T11:55:59.371Z,9.09
2018-12-07T11:58:29.039Z,9.30
2018-12-07T12:00:58.572Z,9.28
2018-12-07T12:03:28.523Z,8.04
2018-12-07T12:05:58.188Z,7.67
2018-12-07T12:08:28.170Z,8.27
2018-12-07T12:10:57.793Z,9.17
2018-12-07T12:13:27.472Z,9.01
2018-12-07T12:15:57.317Z,8.56
2018-12-07T12:18:27.163Z,8.18
2018-12-07T12:20:56.800Z,8.83
2018-12-07T12:23:26.588Z,9.08
2018-12-07T12:25:56.621Z,8.95
2018-12-07T12:28:26.331Z,9.32
2018-12-07T12:30:56.226Z,9.80
2018-12-07T12:33:26.169Z,9.95
2018-12-07T12:35:55.903Z,9.21
2018-12-07T12:38:25.823Z,9.71
2018-12-07T12:40:55.905Z,10.00
2018-12-07T12:43:25.619Z,9.80
2018-12-07T12:45:55.612Z,8.64
2018-12-07T12:48:25.191Z,8.27
2018-12-07T12:50:57.669Z,8.43
2018-12-07T12:53:27.275Z,8.27
2018-12-07T12:55:57.313Z,7.91
2018-12-07T12:58:27.105Z,7.63
2018-12-07T13:00:56.844Z,7.35
2018-12-07T13:03:27.150Z,7.57
2018-12-07T13:05:57.272Z,7.73
2018-12-07T13:08:27.697Z,7.82
2018-12-07T13:10:57.637Z,7.99
2018-12-07T13:13:27.314Z,7.83
2018-12-07T13:15:57.468Z,7.78
2018-12-07T13:18:27.250Z,7.81
2018-12-07T13:20:57.467Z,7.63
2018-12-07T13:23:27.455Z,7.47
2018-12-07T13:25:57.423Z,7.36
2018-12-07T13:28:27.114Z,7.45
2018-12-07T13:30:56.869Z,7.53
2018-12-07T13:33:27.021Z,7.45
2018-12-07T13:35:57.065Z,7.42
2018-12-07T13:38:26.991Z,7.48
2018-12-07T13:40:56.985Z,7.36
2018-12-07T13:43:27.118Z,7.42
2018-12-07T13:45:57.210Z,7.37
2018-12-07T13:48:27.218Z,7.06
2018-12-07T13:50:57.382Z,6.88
2018-12-07T13:53:27.231Z,6.64
2018-12-07T13:55:57.266Z,6.79
2018-12-07T13:58:27.015Z,6.72
2018-12-07T14:00:57.238Z,6.62
2018-12-07T14:03:26.842Z,6.45
2018-12-07T14:05:56.783Z,6.33
2018-12-07T14:08:27.165Z,6.24
2018-12-07T14:10:57.168Z,6.01
2018-12-07T14:13:26.982Z,5.82
2018-12-07T14:15:56.892Z,5.68
2018-12-07T14:18:26.699Z,5.61
2018-12-07T14:20:56.717Z,5.44
2018-12-07T14:23:27.242Z,5.14
2018-12-07T14:25:57.127Z,5.28
2018-12-07T14:28:26.995Z,5.24
2018-12-07T14:30:57.168Z,5.12
2018-12-07T14:33:27.261Z,5.00
2018-12-07T14:35:57.219Z,4.93
2018-12-07T14:38:27.140Z,4.84
2018-12-07T14:40:56.978Z,4.79
2018-12-07T14:43:26.702Z,4.76
2018-12-07T14:45:56.757Z,4.73
2018-12-07T14:48:26.570Z,4.74
2018-12-07T14:50:56.720Z,4.65
2018-12-07T14:53:26.625Z,4.51
2018-12-07T14:55:56.586Z,4.48
2018-12-07T14:58:26.621Z,4.39
2018-12-07T15:00:56.642Z,4.33
2018-12-07T15:03:26.621Z,4.11
2018-12-07T15:05:57.233Z,4.02
2018-12-07T15:08:27.085Z,3.97
2018-12-07T15:10:56.685Z,4.17
2018-12-07T15:13:26.509Z,4.23
2018-12-07T15:15:56.330Z,4.04
2018-12-07T15:18:26.359Z,3.82
2018-12-07T15:20:57.015Z,3.83
2018-12-07T15:23:27.886Z,3.84
2018-12-07T15:25:58.113Z,3.69
2018-12-07T15:28:29.003Z,3.70
2018-12-07T15:30:59.197Z,3.61
2018-12-07T15:33:29.363Z,3.55
2018-12-07T15:35:59.540Z,3.36
2018-12-07T15:38:29.290Z,3.42
2018-12-07T15:40:59.001Z,3.67
2018-12-07T15:43:28.950Z,3.51
2018-12-07T15:46:00.103Z,3.45
2018-12-07T15:48:30.332Z,3.47
2018-12-07T15:51:00.992Z,3.59
2018-12-07T15:53:30.811Z,3.54
2018-12-07T15:56:00.699Z,3.63
2018-12-07T15:58:30.492Z,3.43
2018-12-07T16:01:00.579Z,3.34
2018-12-07T16:03:30.454Z,3.30
2018-12-07T16:06:00.336Z,3.09
2018-12-07T16:08:31.112Z,2.90
2018-12-07T16:11:01.111Z,2.82
2018-12-07T16:13:31.897Z,2.62
2018-12-07T16:16:01.651Z,2.45
2018-12-07T16:18:31.536Z,2.59
2018-12-07T16:21:01.758Z,2.62
2018-12-07T16:23:31.704Z,2.63
2018-12-07T16:26:01.970Z,2.67
2018-12-07T16:28:32.459Z,2.60
2018-12-07T16:31:02.738Z,2.77
2018-12-07T16:33:32.729Z,2.85
2018-12-07T16:36:02.801Z,2.73
2018-12-07T16:38:32.911Z,2.63
2018-12-07T16:41:03.073Z,2.60
2018-12-07T16:43:33.197Z,2.51
2018-12-07T16:46:03.148Z,2.48
2018-12-07T16:48:33.365Z,2.36
2018-12-07T16:51:03.676Z,2.25
2018-12-07T16:53:33.733Z,2.12
2018-12-07T16:56:03.638Z,2.29
2018-12-07T16:58:33.433Z,2.31
2018-12-07T17:01:03.600Z,2.23
2018-12-07T17:03:33.611Z,2.16
2018-12-07T17:06:03.531Z,2.20
2018-12-07T17:08:33.803Z,2.13
2018-12-07T17:11:03.648Z,2.18
2018-12-07T17:13:34.356Z,2.13
2018-12-07T17:16:04.488Z,2.05
2018-12-07T17:18:34.822Z,2.00
2018-12-07T17:21:05.014Z,2.13
2018-12-07T17:23:35.012Z,2.38
2018-12-07T17:26:05.079Z,2.38
2018-12-07T17:28:34.897Z,2.41
2018-12-07T17:31:04.846Z,2.39
2018-12-07T17:33:34.917Z,2.33
2018-12-07T17:36:05.118Z,2.46
2018-12-07T17:38:34.910Z,2.52
2018-12-07T17:41:05.002Z,2.60
2018-12-07T17:43:35.006Z,2.53
2018-12-07T17:46:06.232Z,2.48
2018-12-07T17:48:36.101Z,2.37
2018-12-07T17:51:06.478Z,2.30
2018-12-07T17:53:36.209Z,2.29
2018-12-07T17:56:06.342Z,2.15
2018-12-07T17:58:36.081Z,1.94
2018-12-07T18:01:06.133Z,1.93
2018-12-07T18:03:35.983Z,1.78
2018-12-07T18:06:05.876Z,1.59
2018-12-07T18:08:35.692Z,1.62
2018-12-07T18:11:05.649Z,1.48
2018-12-07T18:13:35.241Z,1.34
2018-12-07T18:16:05.232Z,1.28
2018-12-07T18:18:35.269Z,1.45
2018-12-07T18:21:05.268Z,1.45
2018-12-07T18:23:35.970Z,1.35
2018-12-07T18:26:06.392Z,1.23
2018-12-07T18:28:36.529Z,1.08
2018-12-07T18:31:06.557Z,0.98
2018-12-07T18:33:36.842Z,0.80
2018-12-07T18:36:07.221Z,0.85
2018-12-07T18:38:37.274Z,0.82
2018-12-07T18:41:07.070Z,0.71
2018-12-07T18:43:36.867Z,0.72
2018-12-07T18:46:07.068Z,0.74
2018-12-07T18:48:37.752Z,0.68
2018-12-07T18:51:08.234Z,0.70
2018-12-07T18:53:38.537Z,0.78
2018-12-07T18:56:08.783Z,0.71
2018-12-07T18:58:38.507Z,0.67
2018-12-07T19:01:08.534Z,-1.24
2018-12-07T19:03:38.550Z,0.68
2018-12-07T19:06:08.490Z,0.59
2018-12-07T19:08:38.622Z,0.64
2018-12-07T19:11:08.628Z,0.65
2018-12-07T19:13:38.726Z,0.64
2018-12-07T19:16:08.867Z,0.64
2018-12-07T19:18:38.879Z,0.59
2018-12-07T19:21:09.071Z,0.54
2018-12-07T19:23:39.200Z,0.55
2018-12-07T19:26:09.259Z,0.57
2018-12-07T19:28:39.432Z,0.56
2018-12-07T19:31:09.606Z,0.52
2018-12-07T19:33:39.510Z,0.56
2018-12-07T19:36:09.514Z,0.47
2018-12-07T19:38:39.455Z,0.45
2018-12-07T19:41:09.573Z,0.53
2018-12-07T19:44:42.118Z,0.56
2018-12-07T19:47:12.187Z,0.53
2018-12-07T19:49:42.177Z,0.57
2018-12-07T19:52:12.620Z,0.68
2018-12-07T19:54:43.002Z,0.55
2018-12-07T19:57:12.870Z,0.44
2018-12-07T19:59:42.754Z,0.44
2018-12-07T20:02:12.530Z,0.32
2018-12-07T20:04:42.560Z,0.22
2018-12-07T20:07:12.465Z,0.22
2018-12-07T20:09:42.466Z,0.18
2018-12-07T20:12:12.482Z,0.13
2018-12-07T20:14:42.839Z,-0.01
2018-12-07T20:17:12.695Z,-0.13
2018-12-07T20:19:42.619Z,-0.10
2018-12-07T20:22:12.382Z,-0.01
2018-12-07T20:24:41.943Z,0.03
2018-12-07T20:27:12.440Z,-0.43
2018-12-07T20:29:42.856Z,-0.03
2018-12-07T20:35:18.158Z,-0.31
2018-12-07T20:41:11.424Z,-0.59
2018-12-07T20:43:41.692Z,-0.58
2018-12-07T20:46:11.537Z,-0.66
2018-12-07T20:48:41.582Z,-0.69
2018-12-07T20:51:11.419Z,-2.14
2018-12-07T20:53:41.536Z,-0.60
2018-12-07T20:56:11.531Z,-1.18
2018-12-07T20:58:41.312Z,-0.70
2018-12-07T21:01:11.490Z,-0.78
2018-12-07T21:04:50.252Z,-0.67
2018-12-07T21:09:33.365Z,-0.73
2018-12-07T21:14:19.020Z,-0.86
2018-12-07T21:17:10.770Z,-0.86
2018-12-07T21:20:15.331Z,-0.66
2018-12-07T21:22:46.256Z,-0.42
2018-12-07T21:25:16.246Z,-0.50
2018-12-07T21:27:53.458Z,-0.38
2018-12-07T21:30:57.939Z,-0.39
2018-12-07T21:34:35.590Z,-0.43
2018-12-07T21:37:05.701Z,-0.60
2018-12-07T21:39:46.505Z,-0.72
2018-12-07T21:42:18.201Z,-0.74
2018-12-07T21:44:48.404Z,-0.73
2018-12-07T21:48:39.351Z,-0.77
2018-12-07T21:53:18.258Z,-0.78
2018-12-07T21:55:48.189Z,-0.82
2018-12-07T21:58:18.258Z,-0.94
2018-12-07T22:00:48.420Z,-0.97
2018-12-07T22:03:18.482Z,-0.84
2018-12-07T22:05:48.766Z,-0.78
2018-12-07T22:08:18.744Z,-0.79
2018-12-07T22:10:48.868Z,-0.94
2018-12-07T22:13:18.766Z,-0.98
2018-12-07T22:15:48.831Z,-0.97
2018-12-07T22:18:18.552Z,-1.07
2018-12-07T22:20:48.647Z,-1.04
2018-12-07T22:23:18.526Z,-0.87
2018-12-07T22:25:48.977Z,-0.83
2018-12-07T22:28:19.072Z,-1.01
2018-12-07T22:30:48.892Z,-1.01
2018-12-07T22:33:18.469Z,-1.08
2018-12-07T22:35:48.615Z,-1.30
2018-12-07T22:38:18.797Z,-1.21
2018-12-07T22:40:49.095Z,-1.19
2018-12-07T22:43:19.013Z,-1.13
2018-12-07T22:45:48.706Z,-1.20
2018-12-07T22:48:18.736Z,-1.28
2018-12-07T22:50:49.266Z,-1.31
2018-12-07T22:53:18.985Z,-1.32
2018-12-07T22:55:48.661Z,-1.33
2018-12-07T22:58:18.464Z,-1.30
2018-12-07T23:00:49.450Z,-1.38
2018-12-07T23:03:19.238Z,-1.47
2018-12-07T23:05:49.020Z,-1.55
2018-12-07T23:08:18.726Z,-1.54
2018-12-07T23:10:48.450Z,-1.53
2018-12-07T23:13:18.015Z,-1.56
2018-12-07T23:15:47.636Z,-1.60
2018-12-07T23:18:17.369Z,-1.75
2018-12-07T23:20:47.671Z,-1.72
2018-12-07T23:23:17.656Z,-1.69
2018-12-07T23:25:47.341Z,-1.82
2018-12-07T23:28:19.500Z,-1.76
2018-12-07T23:30:49.028Z,-1.90
2018-12-07T23:33:18.925Z,-1.94
2018-12-07T23:35:48.556Z,-2.06
2018-12-07T23:38:18.356Z,-2.00
2018-12-07T23:41:02.749Z,-1.85
2018-12-07T23:43:32.576Z,-1.66
2018-12-07T23:46:02.380Z,-1.62
2018-12-07T23:48:32.193Z,-1.61
2018-12-07T23:51:02.195Z,-1.61
2018-12-07T23:53:31.973Z,-1.77
2018-12-07T23:56:01.585Z,-1.72
2018-12-07T23:58:31.462Z,-1.77
